createdAt,value
2023-02-17T00:02:44.763Z,11.30
2023-02-17T00:05:34.139Z,11.30
2023-02-17T00:08:22.818Z,11.30
2023-02-17T00:11:12.237Z,10.10
2023-02-17T00:14:03.426Z,11.30
2023-02-17T00:16:55.521Z,11.40
2023-02-17T00:19:44.574Z,12.00
2023-02-17T00:22:32.357Z,11.40
2023-02-17T00:25:20.784Z,11.10
2023-02-17T00:28:11.494Z,11.40
2023-02-17T00:31:07.318Z,11.40
2023-02-17T00:33:59.661Z,11.60
2023-02-17T00:36:47.827Z,11.30
2023-02-17T00:39:39.033Z,11.30
2023-02-17T00:42:29.986Z,11.30
2023-02-17T00:45:21.283Z,11.30
2023-02-17T00:48:14.092Z,11.30
2023-02-17T00:51:08.001Z,11.30
2023-02-17T00:53:56.088Z,11.30
2023-02-17T00:56:44.016Z,11.30
2023-02-17T00:59:38.892Z,11.40
2023-02-17T01:02:28.940Z,11.50
2023-02-17T01:05:17.061Z,11.30
2023-02-17T01:08:09.319Z,11.40
2023-02-17T01:10:58.009Z,11.50
2023-02-17T01:13:48.248Z,11.80
2023-02-17T01:16:38.194Z,11.60
2023-02-17T01:19:32.604Z,11.30
2023-02-17T01:22:20.620Z,11.10
2023-02-17T01:25:13.783Z,11.30
2023-02-17T01:28:01.509Z,11.20
2023-02-17T01:30:50.559Z,11.10
2023-02-17T01:33:38.042Z,11.10
2023-02-17T01:36:26.674Z,11.00
2023-02-17T01:39:15.729Z,11.40
2023-02-17T01:42:07.640Z,11.10
2023-02-17T01:45:13.950Z,11.10
2023-02-17T01:48:03.405Z,11.10
2023-02-17T01:50:54.538Z,11.30
2023-02-17T01:53:45.927Z,11.10
2023-02-17T01:56:35.378Z,11.00
2023-02-17T01:59:29.313Z,11.00
2023-02-17T02:02:18.332Z,11.10
2023-02-17T02:05:09.798Z,10.90
2023-02-17T02:07:58.629Z,11.00
2023-02-17T02:10:49.555Z,10.90
2023-02-17T02:13:37.315Z,10.80
2023-02-17T02:16:29.178Z,10.80
2023-02-17T02:19:30.463Z,10.90
2023-02-17T02:22:31.837Z,10.80
2023-02-17T02:25:34.189Z,10.80
2023-02-17T02:28:29.296Z,10.40
2023-02-17T02:31:33.878Z,10.60
2023-02-17T02:34:26.316Z,10.50
2023-02-17T02:37:16.601Z,13.20
2023-02-17T02:40:07.133Z,10.60
2023-02-17T02:42:56.896Z,10.70
2023-02-17T02:45:47.491Z,10.60
2023-02-17T02:48:38.996Z,10.60
2023-02-17T02:51:32.640Z,10.50
2023-02-17T02:54:29.278Z,13.30
2023-02-17T02:57:36.875Z,10.40
2023-02-17T03:00:32.034Z,10.10
2023-02-17T03:03:26.282Z,10.40
2023-02-17T03:06:19.875Z,10.40
2023-02-17T03:09:13.402Z,10.70
2023-02-17T03:12:01.413Z,10.40
2023-02-17T03:14:54.646Z,10.20
2023-02-17T03:17:43.688Z,10.40
2023-02-17T03:20:32.353Z,11.30
2023-02-17T03:23:19.900Z,10.40
2023-02-17T03:26:09.215Z,10.40
2023-02-17T03:28:57.051Z,10.40
2023-02-17T03:31:45.466Z,10.40
2023-02-17T03:34:37.050Z,10.40
2023-02-17T03:37:25.129Z,10.30
2023-02-17T03:40:12.982Z,10.40
2023-02-17T03:43:05.256Z,10.30
2023-02-17T03:45:54.709Z,10.50
2023-02-17T03:48:42.476Z,10.40
2023-02-17T03:51:31.082Z,10.30
2023-02-17T03:54:19.091Z,10.30
2023-02-17T03:57:07.712Z,10.30
2023-02-17T04:00:07.758Z,10.30
2023-02-17T04:03:00.530Z,10.30
2023-02-17T04:05:48.356Z,10.30
2023-02-17T04:08:37.243Z,10.30
2023-02-17T04:11:24.961Z,10.40
2023-02-17T04:14:13.679Z,10.30
2023-02-17T04:17:03.612Z,11.70
2023-02-17T04:19:54.604Z,10.40
2023-02-17T04:22:45.968Z,10.40
2023-02-17T04:25:35.053Z,10.40
2023-02-17T04:28:22.914Z,11.10
2023-02-17T04:31:12.107Z,10.30
2023-02-17T04:34:01.600Z,10.30
2023-02-17T04:36:49.272Z,10.40
2023-02-17T04:39:37.376Z,10.40
2023-02-17T04:42:27.426Z,10.30
2023-02-17T04:45:17.941Z,10.40
2023-02-17T04:48:05.898Z,10.40
2023-02-17T04:51:00.758Z,10.50
2023-02-17T04:53:48.358Z,10.40
2023-02-17T04:56:37.168Z,10.50
2023-02-17T04:59:27.985Z,10.50
2023-02-17T05:02:16.139Z,13.40
2023-02-17T05:05:03.603Z,10.60
2023-02-17T05:07:53.086Z,10.60
2023-02-17T05:10:40.751Z,10.50
2023-02-17T05:13:29.001Z,10.60
2023-02-17T05:16:16.726Z,10.50
2023-02-17T05:19:07.688Z,10.60
2023-02-17T05:21:56.081Z,10.60
2023-02-17T05:24:46.181Z,10.50
2023-02-17T05:27:34.235Z,10.50
2023-02-17T05:30:23.234Z,11.60
2023-02-17T05:33:11.118Z,10.50
2023-02-17T05:36:03.470Z,10.50
2023-02-17T05:38:52.654Z,10.50
2023-02-17T05:41:41.691Z,10.40
2023-02-17T05:44:29.511Z,10.50
2023-02-17T05:47:17.369Z,10.50
2023-02-17T05:50:05.834Z,10.70
2023-02-17T05:52:56.412Z,10.50
2023-02-17T05:55:44.505Z,10.50
2023-02-17T05:58:33.461Z,10.50
2023-02-17T06:01:21.538Z,10.30
2023-02-17T06:04:09.378Z,10.20
2023-02-17T06:06:57.227Z,10.10
2023-02-17T06:09:47.287Z,10.00
2023-02-17T06:12:35.744Z,10.10
2023-02-17T06:15:25.657Z,10.00
2023-02-17T06:18:13.469Z,10.00
2023-02-17T06:21:01.284Z,10.10
2023-02-17T06:23:49.175Z,10.10
2023-02-17T06:26:42.635Z,10.10
2023-02-17T06:29:30.581Z,10.20
2023-02-17T06:32:21.029Z,10.10
2023-02-17T06:35:11.300Z,10.20
2023-02-17T06:37:58.730Z,10.30
2023-02-17T06:40:47.734Z,10.40
2023-02-17T06:43:38.402Z,10.50
2023-02-17T06:46:30.852Z,10.20
2023-02-17T06:49:20.022Z,10.40
2023-02-17T06:52:10.309Z,10.50
2023-02-17T06:54:58.517Z,10.30
2023-02-17T06:57:47.677Z,10.30
2023-02-17T07:00:37.408Z,10.30
2023-02-17T07:03:26.643Z,10.30
2023-02-17T07:06:18.832Z,10.20
2023-02-17T07:09:16.558Z,10.40
2023-02-17T07:12:04.488Z,10.20
2023-02-17T07:14:53.146Z,10.30
2023-02-17T07:17:41.526Z,12.50
2023-02-17T07:20:29.146Z,10.00
2023-02-17T07:23:18.844Z,10.30
2023-02-17T07:26:08.629Z,10.40
2023-02-17T07:28:56.623Z,10.40
2023-02-17T07:31:44.319Z,10.40
2023-02-17T07:34:33.563Z,10.40
2023-02-17T07:37:22.189Z,10.50
2023-02-17T07:40:11.562Z,10.50
2023-02-17T07:42:59.147Z,10.50
2023-02-17T07:45:47.568Z,10.60
2023-02-17T07:48:35.163Z,10.60
2023-02-17T07:51:26.576Z,10.60
2023-02-17T07:54:16.148Z,10.70
2023-02-17T07:57:05.511Z,10.70
2023-02-17T07:59:55.808Z,10.70
2023-02-17T08:02:43.894Z,10.70
2023-02-17T08:05:34.740Z,10.80
2023-02-17T08:08:45.296Z,10.80
2023-02-17T08:11:50.389Z,10.80
2023-02-17T08:14:40.033Z,11.90
2023-02-17T08:17:27.954Z,9.30
2023-02-17T08:20:18.115Z,10.90
2023-02-17T08:23:05.724Z,10.50
2023-02-17T08:25:54.634Z,11.20
2023-02-17T08:28:44.252Z,10.90
2023-02-17T08:31:35.025Z,11.00
2023-02-17T08:34:22.938Z,11.10
2023-02-17T08:37:13.962Z,11.10
2023-02-17T08:40:03.121Z,11.10
2023-02-17T08:42:54.544Z,9.00
2023-02-17T08:45:42.224Z,11.20
2023-02-17T08:48:32.094Z,11.20
2023-02-17T08:51:23.634Z,11.30
2023-02-17T08:54:11.582Z,11.30
2023-02-17T08:57:00.041Z,11.30
2023-02-17T08:59:50.082Z,11.10
2023-02-17T09:02:37.746Z,11.30
2023-02-17T09:05:26.960Z,11.40
2023-02-17T09:08:14.491Z,11.40
2023-02-17T09:11:04.174Z,9.30
2023-02-17T09:13:51.559Z,11.60
2023-02-17T09:16:41.346Z,11.70
2023-02-17T09:19:29.198Z,11.70
2023-02-17T09:22:31.655Z,12.10
2023-02-17T09:25:20.297Z,13.40
2023-02-17T09:28:08.910Z,12.10
2023-02-17T09:30:56.740Z,12.30
2023-02-17T09:33:45.702Z,12.40
2023-02-17T09:36:35.323Z,12.40
2023-02-17T09:39:26.344Z,12.60
2023-02-17T09:42:19.163Z,12.80
2023-02-17T09:45:14.121Z,13.00
2023-02-17T09:48:04.537Z,13.00
2023-02-17T09:50:55.737Z,13.20
2023-02-17T09:53:46.349Z,13.30
2023-02-17T09:56:38.319Z,13.40
2023-02-17T09:59:28.263Z,13.50
2023-02-17T10:02:17.404Z,13.60
2023-02-17T10:05:07.353Z,13.80
2023-02-17T10:07:59.352Z,13.80
2023-02-17T10:10:49.422Z,13.70
2023-02-17T10:13:38.988Z,13.80
2023-02-17T10:16:31.098Z,13.50
2023-02-17T10:19:22.347Z,13.60
2023-02-17T10:22:12.518Z,13.50
2023-02-17T10:25:01.355Z,13.40
2023-02-17T10:27:55.706Z,13.50
2023-02-17T10:30:49.326Z,13.60
2023-02-17T10:33:37.625Z,13.60
2023-02-17T10:36:27.234Z,13.80
2023-02-17T10:39:15.819Z,13.80
2023-02-17T10:42:07.434Z,13.80
2023-02-17T10:44:57.671Z,13.90
2023-02-17T10:47:47.063Z,14.00
2023-02-17T10:50:35.260Z,14.30
2023-02-17T10:53:25.287Z,14.00
2023-02-17T10:56:16.042Z,14.00
2023-02-17T10:59:07.674Z,14.10
2023-02-17T11:02:02.065Z,14.30
2023-02-17T11:04:52.300Z,14.00
2023-02-17T11:07:41.294Z,14.50
2023-02-17T11:10:33.836Z,14.60
2023-02-17T11:13:34.509Z,12.00
2023-02-17T11:16:23.730Z,15.10
2023-02-17T11:19:21.374Z,14.60
2023-02-17T11:22:28.520Z,14.60
2023-02-17T11:25:25.616Z,14.50
2023-02-17T11:28:13.995Z,14.40
2023-02-17T11:31:05.092Z,14.20
2023-02-17T11:33:52.843Z,14.00
2023-02-17T11:36:41.746Z,14.20
2023-02-17T11:39:30.770Z,14.50
2023-02-17T11:42:18.427Z,14.20
2023-02-17T11:45:15.500Z,14.20
2023-02-17T11:48:12.569Z,14.30
2023-02-17T11:51:01.837Z,14.40
2023-02-17T11:53:54.810Z,14.20
2023-02-17T11:56:46.787Z,14.30
2023-02-17T11:59:41.738Z,14.30
2023-02-17T12:02:42.610Z,14.60
2023-02-17T12:05:35.594Z,14.50
2023-02-17T12:08:25.428Z,14.20
2023-02-17T12:11:18.765Z,14.20
2023-02-17T12:14:16.734Z,13.80
2023-02-17T12:17:07.547Z,14.00
2023-02-17T12:19:59.004Z,14.00
2023-02-17T12:22:58.718Z,14.20
2023-02-17T12:25:48.781Z,14.60
2023-02-17T12:28:57.863Z,14.70
2023-02-17T12:31:55.169Z,14.80
2023-02-17T12:34:44.047Z,14.50
2023-02-17T12:37:32.759Z,14.20
2023-02-17T12:40:29.917Z,11.80
2023-02-17T12:43:23.309Z,14.10
2023-02-17T12:46:13.378Z,14.10
2023-02-17T12:49:07.653Z,14.20
2023-02-17T12:52:02.185Z,14.20
2023-02-17T12:54:56.585Z,14.10
2023-02-17T12:57:47.903Z,13.00
2023-02-17T13:00:37.661Z,14.00
2023-02-17T13:03:25.944Z,14.00
2023-02-17T13:06:19.180Z,14.00
2023-02-17T13:09:31.173Z,14.60
2023-02-17T13:12:36.355Z,14.20
2023-02-17T13:15:29.236Z,13.90
2023-02-17T13:18:29.529Z,13.90
2023-02-17T13:21:20.551Z,13.80
2023-02-17T13:24:14.516Z,13.60
2023-02-17T13:27:11.772Z,13.60
2023-02-17T13:30:00.774Z,13.80
2023-02-17T13:33:01.732Z,13.70
2023-02-17T13:35:49.913Z,13.50
2023-02-17T13:38:39.127Z,13.40
2023-02-17T13:41:31.230Z,13.30
2023-02-17T13:44:27.416Z,13.70
2023-02-17T13:47:18.625Z,13.30
2023-02-17T13:50:08.062Z,13.30
2023-02-17T13:52:56.680Z,14.50
2023-02-17T13:55:49.272Z,12.30
2023-02-17T13:58:38.210Z,13.50
2023-02-17T14:01:28.962Z,13.60
2023-02-17T14:04:25.414Z,14.20
2023-02-17T14:07:14.944Z,13.40
2023-02-17T14:10:02.668Z,13.50
2023-02-17T14:12:51.659Z,13.60
2023-02-17T14:15:39.791Z,13.40
2023-02-17T14:18:33.362Z,13.20
2023-02-17T14:21:25.763Z,13.30
2023-02-17T14:24:25.526Z,13.30
2023-02-17T14:27:15.555Z,13.40
2023-02-17T14:30:05.719Z,13.30
2023-02-17T14:33:02.376Z,13.10
2023-02-17T14:35:51.567Z,13.50
2023-02-17T14:38:41.964Z,12.80
2023-02-17T14:41:29.812Z,12.80
2023-02-17T14:44:19.771Z,12.70
2023-02-17T14:47:08.828Z,12.60
2023-02-17T14:49:56.880Z,12.60
2023-02-17T14:52:45.829Z,12.50
2023-02-17T14:55:34.913Z,12.60
2023-02-17T14:58:23.582Z,12.50
2023-02-17T15:01:16.842Z,12.40
2023-02-17T15:04:05.649Z,12.40
2023-02-17T15:06:54.779Z,12.40
2023-02-17T15:09:43.327Z,12.30
2023-02-17T15:12:47.236Z,12.30
2023-02-17T15:15:34.593Z,12.60
2023-02-17T15:18:22.708Z,12.20
2023-02-17T15:21:26.353Z,12.20
2023-02-17T15:24:15.698Z,11.70
2023-02-17T15:27:04.294Z,12.40
2023-02-17T15:29:54.719Z,12.10
2023-02-17T15:32:43.154Z,12.60
2023-02-17T15:35:31.197Z,12.00
2023-02-17T15:38:19.409Z,11.90
2023-02-17T15:41:12.597Z,12.00
2023-02-17T15:44:06.285Z,11.90
2023-02-17T15:46:56.875Z,11.90
2023-02-17T15:49:46.331Z,11.90
2023-02-17T15:52:33.860Z,11.90
2023-02-17T15:55:23.757Z,11.90
2023-02-17T15:58:13.701Z,11.00
2023-02-17T16:01:04.347Z,12.50
2023-02-17T16:03:54.113Z,11.80
2023-02-17T16:06:44.402Z,11.70
2023-02-17T16:09:32.176Z,11.60
2023-02-17T16:12:26.879Z,11.40
2023-02-17T16:15:16.549Z,11.20
2023-02-17T16:18:04.873Z,11.10
2023-02-17T16:20:53.668Z,11.00
2023-02-17T16:23:41.887Z,10.90
2023-02-17T16:26:34.177Z,10.80
2023-02-17T16:29:22.748Z,10.80
2023-02-17T16:32:12.234Z,10.70
2023-02-17T16:34:59.955Z,10.60
2023-02-17T16:37:55.256Z,10.60
2023-02-17T16:40:47.592Z,10.60
2023-02-17T16:43:36.209Z,10.50
2023-02-17T16:46:27.460Z,10.40
2023-02-17T16:49:19.856Z,10.50
2023-02-17T16:52:23.891Z,10.50
2023-02-17T16:55:19.662Z,10.20
2023-02-17T16:58:14.975Z,10.40
2023-02-17T17:01:03.990Z,10.40
2023-02-17T17:03:51.289Z,10.40
2023-02-17T17:06:39.918Z,10.40
2023-02-17T17:09:28.966Z,10.40
2023-02-17T17:12:18.447Z,10.90
2023-02-17T17:15:06.164Z,10.30
2023-02-17T17:17:56.575Z,10.30
2023-02-17T17:20:44.504Z,10.20
2023-02-17T17:23:32.239Z,10.20
2023-02-17T17:26:23.077Z,10.30
2023-02-17T17:29:13.333Z,10.30
2023-02-17T17:32:02.067Z,8.40
2023-02-17T17:34:52.492Z,10.30
2023-02-17T17:37:40.366Z,10.30
2023-02-17T17:40:30.611Z,10.30
2023-02-17T17:43:18.805Z,10.30
2023-02-17T17:46:12.265Z,10.20
2023-02-17T17:49:01.008Z,10.20
2023-02-17T17:51:56.874Z,10.20
2023-02-17T17:54:44.966Z,10.00
2023-02-17T17:57:35.046Z,10.20
2023-02-17T18:00:23.026Z,10.20
2023-02-17T18:03:20.089Z,10.20
2023-02-17T18:06:09.797Z,10.20
2023-02-17T18:09:01.854Z,10.30
2023-02-17T18:11:49.831Z,10.20
2023-02-17T18:14:38.846Z,10.20
2023-02-17T18:17:27.267Z,10.20
2023-02-17T18:20:16.886Z,10.20
2023-02-17T18:23:13.137Z,10.40
2023-02-17T18:26:00.934Z,10.30
2023-02-17T18:28:51.893Z,10.20
2023-02-17T18:31:39.842Z,10.20
2023-02-17T18:34:28.062Z,10.20
2023-02-17T18:37:19.565Z,10.30
2023-02-17T18:40:08.276Z,10.40
2023-02-17T18:42:56.817Z,10.30
2023-02-17T18:45:49.904Z,10.40
2023-02-17T18:48:38.292Z,10.40
2023-02-17T18:51:27.654Z,10.40
2023-02-17T18:54:16.737Z,10.40
2023-02-17T18:57:04.866Z,10.40
2023-02-17T18:59:52.606Z,10.40
2023-02-17T19:02:40.597Z,9.20
2023-02-17T19:05:28.720Z,10.40
2023-02-17T19:08:17.619Z,10.50
2023-02-17T19:11:08.329Z,10.50
2023-02-17T19:13:58.999Z,10.50
2023-02-17T19:16:49.666Z,10.50
2023-02-17T19:19:37.820Z,10.50
2023-02-17T19:22:25.294Z,10.50
2023-02-17T19:25:13.055Z,10.50
2023-02-17T19:28:02.040Z,10.50
2023-02-17T19:30:49.334Z,10.50
2023-02-17T19:33:36.680Z,10.50
2023-02-17T19:36:24.188Z,10.60
2023-02-17T19:39:12.415Z,10.50
2023-02-17T19:41:59.890Z,10.30
2023-02-17T19:44:49.270Z,10.50
2023-02-17T19:47:36.912Z,10.50
2023-02-17T19:50:24.672Z,10.40
2023-02-17T19:53:15.434Z,10.50
2023-02-17T19:56:11.933Z,10.40
2023-02-17T19:59:00.208Z,10.40
2023-02-17T20:01:49.682Z,10.40
2023-02-17T20:04:36.736Z,10.60
2023-02-17T20:07:24.756Z,10.50
2023-02-17T20:10:12.681Z,10.30
2023-02-17T20:13:00.151Z,10.50
2023-02-17T20:15:47.914Z,10.40
2023-02-17T20:18:44.958Z,10.50
2023-02-17T20:21:35.731Z,10.50
2023-02-17T20:24:23.300Z,10.50
2023-02-17T20:27:11.657Z,10.50
2023-02-17T20:29:59.867Z,10.50
2023-02-17T20:32:47.678Z,10.50
2023-02-17T20:35:36.930Z,10.50
2023-02-17T20:38:24.604Z,10.80
2023-02-17T20:41:15.548Z,10.50
2023-02-17T20:44:04.374Z,10.50
2023-02-17T20:46:52.337Z,10.50
2023-02-17T20:49:40.323Z,10.50
2023-02-17T20:52:29.405Z,10.50
2023-02-17T20:55:19.889Z,10.50
2023-02-17T20:58:09.308Z,8.20
2023-02-17T21:00:57.321Z,10.80
2023-02-17T21:03:44.667Z,10.50
2023-02-17T21:06:34.207Z,10.50
2023-02-17T21:09:23.373Z,10.50
2023-02-17T21:12:11.520Z,8.20
2023-02-17T21:14:59.295Z,10.50
2023-02-17T21:17:47.629Z,10.60
2023-02-17T21:20:35.935Z,10.50
2023-02-17T21:23:26.270Z,10.50
2023-02-17T21:26:18.102Z,10.60
2023-02-17T21:29:06.003Z,10.50
2023-02-17T21:31:54.588Z,10.50
2023-02-17T21:34:43.106Z,10.50
2023-02-17T21:37:31.177Z,10.50
2023-02-17T21:40:18.876Z,9.60
2023-02-17T21:43:25.691Z,10.60
2023-02-17T21:46:13.512Z,10.60
2023-02-17T21:49:02.761Z,10.60
2023-02-17T21:51:50.899Z,10.60
2023-02-17T21:54:38.356Z,10.50
2023-02-17T21:57:27.229Z,10.50
2023-02-17T22:00:17.120Z,10.60
2023-02-17T22:03:05.422Z,10.60
2023-02-17T22:05:53.041Z,10.50
2023-02-17T22:08:40.904Z,10.50
2023-02-17T22:11:31.876Z,10.50
2023-02-17T22:14:20.092Z,10.50
2023-02-17T22:17:09.012Z,10.40
2023-02-17T22:19:59.379Z,10.90
2023-02-17T22:22:47.057Z,10.40
2023-02-17T22:25:34.463Z,10.40
2023-02-17T22:28:22.849Z,10.40
2023-02-17T22:31:13.107Z,10.40
2023-02-17T22:34:03.476Z,10.40
2023-02-17T22:36:51.948Z,10.30
2023-02-17T22:39:39.500Z,10.40
2023-02-17T22:42:27.374Z,10.40
2023-02-17T22:45:15.171Z,10.40
2023-02-17T22:48:03.645Z,10.30
2023-02-17T22:50:53.151Z,10.20
2023-02-17T22:53:41.654Z,10.30
2023-02-17T22:56:30.476Z,10.40
2023-02-17T22:59:18.061Z,10.50
2023-02-17T23:02:06.536Z,10.40
2023-02-17T23:04:54.546Z,10.40
2023-02-17T23:07:43.812Z,10.00
2023-02-17T23:10:31.625Z,10.30
2023-02-17T23:13:22.115Z,10.30
2023-02-17T23:16:11.609Z,10.30
2023-02-17T23:19:04.189Z,10.40
2023-02-17T23:21:52.985Z,10.30
2023-02-17T23:24:42.325Z,10.30
2023-02-17T23:27:29.848Z,8.00
2023-02-17T23:30:20.589Z,10.30
2023-02-17T23:33:08.006Z,11.60
2023-02-17T23:35:56.406Z,10.30
2023-02-17T23:38:44.588Z,10.30
2023-02-17T23:41:33.614Z,10.30
2023-02-17T23:44:21.437Z,10.40
2023-02-17T23:47:09.253Z,10.30
2023-02-17T23:49:58.042Z,10.40
2023-02-17T23:52:49.601Z,10.30
2023-02-17T23:55:37.302Z,10.70
2023-02-17T23:58:26.606Z,10.30
